In Rescue
 
Open Full Screen Window  High Contrast Mode
Wind Gusting 16 knots
10
May 25, 2022 8:19 PM CDT
Weather Information
Wind Direction
  030 °
Wind Speed
  10 kt (12 mph)
Wind Gust
  16 kt (18 mph)
Altimeter
29.93 in
Visibility
10 SM
Temperature
12° C
54° F
Dewpoint
08° C
46° F
Humidity
77%
1hr Rain Fall
00.00 in.
24hr Rain Fall
00.02 in.
Sky Condition
Overcast @ 2,400 ft
Broken @ 2,000 ft
MVFR

METAR KBDH 260119Z AUTO 03010G16KT 10SM BKN020 OVC024 12/08 A2993 RMK AO2

FAA Disclaimer: The data displayed is for advisory purposes only and is not to be used for flight planning or operations.